Time;durP1;ratioP1;P1;durP2;ratioP2;P2;SDS_P1;SDS_P2;PMS_P1;PMS_P2;Temp;Humidity;BMP_temperature;BMP_pressure;BME280_temperature;BME280_humidity;BME280_pressure;Samples;Min_cycle;Max_cycle;Signal;HPM_P1;HPM_P2
2023/03/18 00:02:13;;;;;;;2.47;1.90;;;;;;;10.05;93.32;97785.69;15271343;19;20407;-50
2023/03/18 00:07:46;;;;;;;3.08;1.98;;;;;;;9.97;94.34;97785.69;15270201;19;20025;-45
2023/03/18 00:13:12;;;;;;;3.92;2.30;;;;;;;10.08;95.45;97782.63;15262073;19;20017;-50
2023/03/18 00:18:41;;;;;;;2.83;2.00;;;;;;;10.02;100.00;97778.78;15270966;19;20157;-45
2023/03/18 00:24:07;;;;;;;2.47;2.13;;;;;;;9.99;94.13;97779.13;15259708;19;20022;-46
2023/03/18 00:29:33;;;;;;;2.92;1.83;;;;;;;9.93;100.00;97790.56;15271660;19;20070;-48
2023/03/18 00:35:01;;;;;;;3.35;2.08;;;;;;;9.92;100.00;97796.97;15257776;19;20369;-48
2023/03/18 00:40:41;;;;;;;3.60;2.33;;;;;;;9.88;100.00;97798.31;15270207;19;20022;-50
2023/03/18 00:46:06;;;;;;;3.05;2.00;;;;;;;9.83;100.00;97796.16;15265246;19;20015;-47
2023/03/18 00:51:36;;;;;;;2.72;2.25;;;;;;;9.78;100.00;97809.28;15272031;19;20026;-51
2023/03/18 00:57:02;;;;;;;3.42;2.00;;;;;;;9.76;100.00;97805.09;15280711;19;20014;-51
2023/03/18 01:02:28;;;;;;;2.58;2.13;;;;;;;9.71;100.00;97802.91;15281909;19;20746;-45
2023/03/18 01:07:56;;;;;;;2.67;2.10;;;;;;;9.65;100.00;97799.03;15284054;19;20078;-46
2023/03/18 01:13:22;;;;;;;2.70;1.90;;;;;;;9.66;100.00;97791.81;15270856;19;20017;-52
2023/03/18 01:18:47;;;;;;;3.88;2.10;;;;;;;9.59;100.00;97782.75;15282314;19;20021;-46
2023/03/18 01:24:15;;;;;;;2.63;1.90;;;;;;;9.60;100.00;97787.13;15272336;19;20018;-50
2023/03/18 01:29:40;;;;;;;2.97;2.40;;;;;;;9.56;100.00;97790.16;15282212;19;20090;-47
2023/03/18 01:35:06;;;;;;;2.55;1.85;;;;;;;9.55;100.00;97804.63;15268627;19;20011;-47
2023/03/18 01:40:39;;;;;;;3.00;1.90;;;;;;;9.50;100.00;97806.97;15281389;19;20490;-46
2023/03/18 01:46:07;;;;;;;4.93;1.92;;;;;;;9.53;100.00;97795.88;15274693;19;21032;-47
2023/03/18 01:51:34;;;;;;;2.35;1.80;;;;;;;9.47;100.00;97807.28;15277142;19;20018;-48
2023/03/18 01:57:03;;;;;;;2.65;1.95;;;;;;;9.47;100.00;97796.53;15277015;19;20030;-47
2023/03/18 02:02:29;;;;;;;2.38;1.90;;;;;;;9.42;100.00;97798.91;15277300;19;20014;-46
2023/03/18 02:08:00;;;;;;;2.65;1.73;;;;;;;9.45;100.00;97812.03;15277059;19;20359;-49
2023/03/18 02:13:28;;;;;;;4.07;1.85;;;;;;;9.44;100.00;97804.97;15272867;19;20500;-48
2023/03/18 02:18:56;;;;;;;3.90;2.20;;;;;;;9.41;100.00;97808.00;15276829;19;20018;-47
2023/03/18 02:24:33;;;;;;;2.45;2.00;;;;;;;9.35;100.00;97812.19;15266250;19;20018;-46
2023/03/18 02:30:07;;;;;;;2.33;1.90;;;;;;;9.41;100.00;97818.75;15277170;19;20657;-47
2023/03/18 02:35:42;;;;;;;2.83;1.80;;;;;;;9.40;100.00;97814.38;15265514;19;20558;-46
2023/03/18 02:41:08;;;;;;;3.40;2.28;;;;;;;9.36;100.00;97821.94;15272430;19;20014;-47
2023/03/18 02:46:44;;;;;;;3.53;1.98;;;;;;;9.32;100.00;97825.13;15271816;19;20014;-47
2023/03/18 02:52:09;;;;;;;3.75;2.08;;;;;;;9.27;100.00;97831.03;15271440;19;20014;-47
2023/03/18 02:57:33;;;;;;;3.30;2.00;;;;;;;9.34;100.00;97839.25;15272089;19;20086;-48
2023/03/18 03:03:01;;;;;;;4.07;2.13;;;;;;;9.32;100.00;97847.47;15265146;19;20049;-46
2023/03/18 03:08:26;;;;;;;2.70;2.00;;;;;;;9.26;100.00;97853.53;15275583;19;20506;-47
2023/03/18 03:13:52;;;;;;;2.50;1.90;;;;;;;9.21;100.00;97856.72;15263104;19;20022;-46
2023/03/18 03:19:20;;;;;;;3.22;2.00;;;;;;;9.15;100.00;97854.69;15274560;19;20010;-48
2023/03/18 03:24:46;;;;;;;3.78;1.90;;;;;;;9.15;100.00;97868.13;15262345;19;20252;-46
2023/03/18 03:30:11;;;;;;;2.67;1.77;;;;;;;9.07;100.00;97871.63;15265638;19;20086;-49
2023/03/18 03:35:40;;;;;;;2.72;1.80;;;;;;;9.04;100.00;97877.34;15269075;19;20093;-49
2023/03/18 03:41:04;;;;;;;2.92;2.10;;;;;;;8.98;100.00;97875.31;15270943;19;20035;-46
2023/03/18 03:46:31;;;;;;;2.97;1.77;;;;;;;8.93;100.00;97875.81;15266076;19;20031;-48
2023/03/18 03:51:58;;;;;;;4.70;2.10;;;;;;;8.87;100.00;97876.47;15269684;19;20023;-45
2023/03/18 03:57:25;;;;;;;2.45;1.77;;;;;;;8.81;100.00;97887.84;15270762;19;20594;-46
2023/03/18 04:02:52;;;;;;;3.05;1.90;;;;;;;8.75;100.00;97896.59;15256159;19;20097;-47
2023/03/18 04:08:21;;;;;;;2.38;1.80;;;;;;;8.69;100.00;97894.53;15263953;19;20019;-51
2023/03/18 04:13:46;;;;;;;4.35;1.95;;;;;;;8.69;100.00;97897.22;15262289;19;20035;-51
2023/03/18 04:19:11;;;;;;;2.60;1.98;;;;;;;8.68;100.00;97899.06;15265962;19;20031;-47
2023/03/18 04:24:39;;;;;;;3.00;2.00;;;;;;;8.66;100.00;97898.38;15263708;19;20031;-46
2023/03/18 04:30:05;;;;;;;2.10;1.83;;;;;;;8.65;100.00;97904.75;15279934;19;20014;-49
2023/03/18 04:35:44;;;;;;;2.38;1.85;;;;;;;8.66;100.00;97900.22;15273327;19;20300;-47
2023/03/18 04:41:13;;;;;;;2.63;1.73;;;;;;;8.67;100.00;97904.59;15275897;19;20041;-49
2023/03/18 04:46:42;;;;;;;2.70;2.00;;;;;;;8.64;100.00;97905.75;15280043;19;20018;-46
2023/03/18 04:52:10;;;;;;;2.47;1.80;;;;;;;8.66;100.00;97905.59;15274905;19;20035;-48
2023/03/18 04:57:38;;;;;;;2.17;1.73;;;;;;;8.66;100.00;97910.97;15279210;19;20688;-47
2023/03/18 05:03:06;;;;;;;4.15;2.03;;;;;;;8.65;100.00;97899.38;15271969;19;20802;-49
2023/03/18 05:08:32;;;;;;;3.08;1.70;;;;;;;8.64;100.00;97895.84;15279548;19;20018;-46
2023/03/18 05:14:00;;;;;;;3.08;1.90;;;;;;;8.65;100.00;97899.38;15273978;19;20015;-46
2023/03/18 05:19:28;;;;;;;2.45;1.77;;;;;;;8.67;100.00;97900.06;15279631;19;20462;-49
2023/03/18 05:25:00;;;;;;;;;;;;;;;8.64;100.00;97895.84;15273770;19;20103;-47
2023/03/18 05:30:27;;;;;;;3.47;1.70;;;;;;;8.66;100.00;97886.78;15274255;19;19931;-50
2023/03/18 05:35:56;;;;;;;2.72;1.60;;;;;;;8.61;100.00;97896.19;15269940;19;20720;-47
2023/03/18 05:41:31;;;;;;;2.58;1.83;;;;;;;8.59;100.00;97898.19;15269413;19;20014;-51
2023/03/18 05:47:03;;;;;;;2.28;1.80;;;;;;;8.61;100.00;97892.66;15275423;19;20031;-50
2023/03/18 05:52:41;;;;;;;2.73;1.90;;;;;;;8.52;100.00;97894.47;15268861;19;20022;-52
2023/03/18 05:58:08;;;;;;;3.40;1.80;;;;;;;8.48;100.00;97903.84;15270209;19;20097;-51
2023/03/18 06:03:42;;;;;;;2.70;1.98;;;;;;;8.39;100.00;97910.16;15266857;19;20018;-49
2023/03/18 06:09:07;;;;;;;3.35;1.80;;;;;;;8.43;100.00;97895.41;15272350;19;20014;-48
2023/03/18 06:14:32;;;;;;;3.17;2.00;;;;;;;8.45;100.00;97898.75;15264761;19;20078;-48
2023/03/18 06:20:01;;;;;;;3.17;2.08;;;;;;;8.45;100.00;97898.75;15273117;19;20018;-50
2023/03/18 06:25:28;;;;;;;3.10;2.20;;;;;;;8.46;100.00;97905.81;15269326;19;20018;-49
2023/03/18 06:30:57;;;;;;;2.97;2.00;;;;;;;8.48;100.00;97893.94;15270930;19;20388;-50
2023/03/18 06:36:25;;;;;;;2.28;1.90;;;;;;;8.54;100.00;97907.72;15270308;19;20399;-50
2023/03/18 06:41:56;;;;;;;2.60;1.70;;;;;;;8.61;100.00;97898.03;15269091;19;20353;-48
2023/03/18 06:47:30;;;;;;;3.10;1.70;;;;;;;8.71;100.00;97908.63;15267799;19;20049;-50
2023/03/18 06:52:58;;;;;;;2.70;1.70;;;;;;;8.86;100.00;97917.78;15267992;19;20019;-50
2023/03/18 06:58:24;;;;;;;11.25;9.55;;;;;;;9.03;100.00;97913.28;15270202;19;20487;-46
2023/03/18 07:03:52;;;;;;;3.83;1.83;;;;;;;9.20;100.00;97927.59;15266490;19;20022;-50
2023/03/18 07:09:19;;;;;;;2.58;1.70;;;;;;;9.44;100.00;97941.22;15270343;19;20018;-48
2023/03/18 07:14:44;;;;;;;2.63;2.00;;;;;;;9.59;100.00;97933.34;15266704;19;20041;-47
2023/03/18 07:20:09;;;;;;;4.85;2.00;;;;;;;9.70;100.00;97939.25;15262343;19;20025;-50
2023/03/18 07:25:37;;;;;;;2.50;1.70;;;;;;;9.87;100.00;97941.94;15266195;19;20475;-52
2023/03/18 07:31:04;;;;;;;3.90;1.90;;;;;;;10.01;100.00;97953.88;15258703;19;20030;-46
2023/03/18 07:36:30;;;;;;;2.92;1.70;;;;;;;10.09;100.00;97958.41;15264797;19;20090;-48
2023/03/18 07:41:57;;;;;;;4.82;1.80;;;;;;;10.18;100.00;97968.97;15267246;19;20019;-51
2023/03/18 07:47:29;;;;;;;2.50;1.80;;;;;;;10.21;100.00;97967.81;15270238;19;20131;-47
2023/03/18 07:52:55;;;;;;;3.53;1.80;;;;;;;10.27;100.00;97958.22;15261862;19;20281;-48
2023/03/18 07:58:25;;;;;;;3.60;1.80;;;;;;;10.36;100.00;97973.34;15268462;19;20031;-47
2023/03/18 08:03:50;;;;;;;2.33;1.77;;;;;;;10.37;100.00;97966.94;15276172;19;20078;-49
2023/03/18 08:09:15;;;;;;;2.17;1.60;;;;;;;10.43;100.00;97987.81;15284830;19;20018;-48
2023/03/18 08:14:42;;;;;;;2.33;1.50;;;;;;;10.56;100.00;97994.53;15277198;19;20018;-49
2023/03/18 08:20:09;;;;;;;2.38;1.50;;;;;;;10.71;100.00;97997.34;15279526;19;20041;-48
2023/03/18 08:25:34;;;;;;;2.72;1.63;;;;;;;10.82;100.00;98010.47;15273627;19;20015;-50
2023/03/18 08:31:03;;;;;;;1.90;1.55;;;;;;;10.91;100.00;97997.81;15274432;19;20026;-48
2023/03/18 08:36:28;;;;;;;2.45;1.65;;;;;;;11.00;100.00;98002.16;15277618;19;20739;-48
2023/03/18 08:41:53;;;;;;;2.45;1.63;;;;;;;11.13;100.00;98003.44;15282833;19;20021;-51
2023/03/18 08:47:21;;;;;;;5.03;1.70;;;;;;;11.19;100.00;98002.75;15280971;19;20021;-51
2023/03/18 08:52:46;;;;;;;4.25;1.70;;;;;;;11.26;100.00;97995.63;15277447;19;20017;-49
2023/03/18 08:58:12;;;;;;;2.65;1.60;;;;;;;11.27;100.00;97986.53;15277181;19;20011;-53
2023/03/18 09:03:39;;;;;;;2.45;1.60;;;;;;;11.30;100.00;97985.31;15275380;19;20492;-48
2023/03/18 09:09:04;;;;;;;2.38;1.80;;;;;;;11.37;100.00;97992.53;15277758;19;20007;-51
2023/03/18 09:14:31;;;;;;;3.05;1.70;;;;;;;11.49;100.00;97989.44;15272649;19;20085;-48
2023/03/18 09:19:59;;;;;;;2.58;1.40;;;;;;;11.77;100.00;97983.53;15277124;19;20340;-49
2023/03/18 09:25:23;;;;;;;1.30;1.20;;;;;;;11.88;100.00;97989.34;15274109;19;20023;-50
2023/03/18 09:30:48;;;;;;;2.53;1.70;;;;;;;12.01;100.00;97991.47;15273923;19;20013;-49
2023/03/18 09:36:17;;;;;;;2.70;1.70;;;;;;;12.14;100.00;97998.97;15272676;19;20388;-51
2023/03/18 09:41:54;;;;;;;3.92;1.45;;;;;;;12.20;100.00;98000.09;15270327;19;20372;-50
2023/03/18 09:47:44;;;;;;;3.72;1.70;;;;;;;12.29;100.00;98001.69;15275093;19;20827;-50
2023/03/18 09:53:21;;;;;;;6.55;2.47;;;;;;;12.44;100.00;98009.00;15273197;19;20375;-50
2023/03/18 09:58:53;;;;;;;3.38;2.45;;;;;;;12.56;100.00;98015.63;15274431;19;20006;-48
2023/03/18 10:04:23;;;;;;;2.42;1.48;;;;;;;12.79;100.00;98003.91;15266705;19;20304;-45
2023/03/18 10:09:55;;;;;;;3.92;1.48;;;;;;;13.06;100.00;98010.50;15272993;19;20090;-48
2023/03/18 10:15:26;;;;;;;1.50;1.20;;;;;;;13.43;100.00;98013.31;15261102;19;20045;-50
2023/03/18 10:21:05;;;;;;;2.53;1.30;;;;;;;13.78;100.00;98005.38;15264590;19;20713;-47
2023/03/18 10:26:40;;;;;;;2.95;1.08;;;;;;;13.88;100.00;98015.88;15265151;19;20736;-45
2023/03/18 10:32:12;;;;;;;6.30;1.20;;;;;;;14.03;100.00;98019.38;15274432;19;20015;-50
2023/03/18 10:37:49;;;;;;;4.68;1.20;;;;;;;14.18;100.00;98016.59;15268676;19;20020;-50
2023/03/18 10:43:19;;;;;;;2.90;1.25;;;;;;;14.43;100.00;98013.47;15271066;19;20483;-48
2023/03/18 10:48:48;;;;;;;1.80;1.10;;;;;;;14.87;100.00;98013.41;15277497;19;20010;-50
2023/03/18 10:54:17;;;;;;;3.75;1.15;;;;;;;15.17;100.00;98015.84;15271835;19;20605;-47
2023/03/18 10:59:46;;;;;;;2.33;1.00;;;;;;;15.17;100.00;98016.69;15273111;19;20007;-48
2023/03/18 11:05:30;;;;;;;1.83;1.17;;;;;;;15.24;100.00;98012.13;15268383;19;20411;-45
2023/03/18 11:10:56;;;;;;;3.28;1.02;;;;;;;15.41;100.00;98009.91;15273685;19;20010;-52
2023/03/18 11:16:32;;;;;;;3.08;1.08;;;;;;;15.65;100.00;98004.97;15264816;19;20006;-49
2023/03/18 11:22:06;;;;;;;1.80;1.10;;;;;;;15.88;100.00;98001.09;15273089;19;20031;-46
2023/03/18 11:27:37;;;;;;;1.70;1.15;;;;;;;15.90;100.00;98001.72;15269648;19;20086;-50
2023/03/18 11:33:06;;;;;;;2.03;1.05;;;;;;;16.11;100.00;98000.69;15265366;19;20366;-47
2023/03/18 11:38:35;;;;;;;3.55;1.20;;;;;;;16.26;100.00;97997.81;15264322;19;20366;-49
2023/03/18 11:44:01;;;;;;;3.58;1.30;;;;;;;16.53;100.00;97989.63;15267108;19;20014;-48
2023/03/18 11:49:32;;;;;;;3.15;1.67;;;;;;;16.61;100.00;97989.44;15271269;19;20015;-47
2023/03/18 11:55:11;;;;;;;2.22;1.48;;;;;;;16.67;100.00;97986.88;15262161;19;20021;-47
2023/03/18 12:00:41;;;;;;;1.42;0.88;;;;;;;16.71;100.00;97982.72;15266531;19;20078;-48
2023/03/18 12:06:24;;;;;;;2.13;1.15;;;;;;;16.73;100.00;97980.63;15268344;19;20044;-49
2023/03/18 12:12:00;;;;;;;3.30;0.90;;;;;;;16.83;100.00;97986.44;15270369;19;20025;-48
2023/03/18 12:17:36;;;;;;;1.95;0.90;;;;;;;16.89;100.00;97982.03;15262238;19;20021;-48
2023/03/18 12:23:12;;;;;;;1.52;0.90;;;;;;;16.92;100.00;97977.00;15265682;19;20011;-51
2023/03/18 12:28:48;;;;;;;2.10;1.00;;;;;;;16.93;100.00;97978.69;15266006;19;20033;-45
2023/03/18 12:34:28;;;;;;;1.55;0.93;;;;;;;16.77;100.00;97979.13;15265292;19;20018;-49
2023/03/18 12:40:11;;;;;;;2.15;1.10;;;;;;;16.77;100.00;97971.81;15268591;19;20121;-47
2023/03/18 12:45:42;;;;;;;2.05;1.10;;;;;;;16.62;100.00;97965.78;15263829;19;20003;-48
2023/03/18 12:51:13;;;;;;;5.18;2.15;;;;;;;16.58;100.00;97962.66;15282929;19;20074;-46
2023/03/18 12:56:45;;;;;;;2.22;1.00;;;;;;;16.68;100.00;97962.22;15278456;19;20022;-46
2023/03/18 13:02:29;;;;;;;3.88;1.90;;;;;;;16.90;100.00;97951.88;15283935;19;20022;-48
2023/03/18 13:08:05;;;;;;;1.15;0.70;;;;;;;17.12;100.00;97964.44;15285237;19;20002;-47
2023/03/18 13:13:35;;;;;;;1.90;1.08;;;;;;;17.21;100.00;97952.25;15281120;19;20054;-47
2023/03/18 13:19:01;;;;;;;3.10;1.10;;;;;;;17.27;100.00;97945.09;15271938;19;20385;-47
2023/03/18 13:24:58;;;;;;;2.33;1.33;;;;;;;17.30;100.00;97940.03;15271704;19;20019;-48
2023/03/18 13:30:34;;;;;;;3.95;1.20;;;;;;;17.73;100.00;97935.84;15280560;19;20640;-49
2023/03/18 13:36:24;;;;;;;1.50;0.90;;;;;;;18.36;96.49;97938.72;15278100;19;20486;-52
2023/03/18 13:42:16;;;;;;;1.83;0.82;;;;;;;18.86;89.33;97935.91;15281528;19;20007;-48
2023/03/18 13:47:46;;;;;;;1.60;0.90;;;;;;;18.79;92.89;97935.19;15281391;19;20007;-52
2023/03/18 13:53:23;;;;;;;2.45;1.00;;;;;;;18.68;89.85;97933.19;15275984;19;20013;-49
2023/03/18 13:58:54;;;;;;;2.95;1.13;;;;;;;18.56;95.40;97927.63;15274630;19;20021;-52
2023/03/18 14:04:38;;;;;;;1.65;0.80;;;;;;;18.60;91.68;97926.13;15275532;19;20144;-51
2023/03/18 14:10:19;;;;;;;2.67;0.90;;;;;;;18.36;82.40;97923.22;15282449;19;20257;-49
2023/03/18 14:15:47;;;;;;;2.45;0.90;;;;;;;18.31;100.00;97929.34;15281972;19;20010;-50
2023/03/18 14:21:25;;;;;;;2.08;0.90;;;;;;;18.17;87.51;97927.78;15277302;19;20017;-49
2023/03/18 14:26:51;;;;;;;1.80;0.90;;;;;;;18.12;99.71;97928.47;15277462;19;20013;-48
2023/03/18 14:32:37;;;;;;;2.17;0.90;;;;;;;18.01;88.88;97921.00;15271986;19;20617;-48
2023/03/18 14:38:19;;;;;;;1.92;1.00;;;;;;;17.94;88.64;97914.72;15268126;19;20363;-49
2023/03/18 14:43:49;;;;;;;1.58;0.90;;;;;;;17.97;100.00;97917.88;15273549;19;20066;-49
2023/03/18 14:49:47;;;;;;;1.27;0.88;;;;;;;18.41;93.62;97923.34;15276286;19;20017;-46
2023/03/18 14:55:20;;;;;;;1.98;0.85;;;;;;;18.69;82.54;97913.88;15272398;19;20014;-48
2023/03/18 15:00:46;;;;;;;2.58;0.90;;;;;;;18.89;90.52;97912.78;15277393;19;20031;-51
2023/03/18 15:06:26;;;;;;;2.47;0.73;;;;;;;18.69;88.78;97908.41;15267698;19;20018;-49
2023/03/18 15:11:55;;;;;;;2.15;0.90;;;;;;;18.64;91.96;97921.88;15275809;19;20010;-51
2023/03/18 15:17:24;;;;;;;1.92;0.80;;;;;;;18.59;94.48;97919.81;15273307;19;20014;-47
2023/03/18 15:22:50;;;;;;;1.58;0.80;;;;;;;18.57;100.00;97916.53;15276152;19;20021;-48
2023/03/18 15:28:26;;;;;;;1.77;0.80;;;;;;;18.54;100.00;97916.09;15271353;19;20030;-47
2023/03/18 15:34:06;;;;;;;1.35;0.80;;;;;;;18.83;90.82;97906.34;15274475;19;20094;-50
2023/03/18 15:39:40;;;;;;;1.92;0.80;;;;;;;19.21;88.59;97905.28;15273579;19;20020;-47
2023/03/18 15:45:16;;;;;;;1.45;0.60;;;;;;;19.16;90.25;97907.91;15273896;19;20017;-46
2023/03/18 15:50:41;;;;;;;1.65;0.90;;;;;;;19.03;89.34;97908.88;15274146;19;20077;-48
2023/03/18 15:56:16;;;;;;;3.08;1.13;;;;;;;18.88;98.33;97900.22;15271339;19;20325;-48
2023/03/18 16:01:46;;;;;;;3.70;0.80;;;;;;;19.26;91.59;97904.59;15272450;19;20014;-47
2023/03/18 16:07:27;;;;;;;2.70;0.90;;;;;;;19.34;86.58;97907.03;15269175;19;20018;-48
2023/03/18 16:12:55;;;;;;;1.17;0.80;;;;;;;19.38;86.32;97910.94;15271208;19;20010;-50
2023/03/18 16:18:22;;;;;;;2.65;0.80;;;;;;;19.30;95.50;97911.28;15268007;19;20033;-50
2023/03/18 16:23:46;;;;;;;2.45;0.93;;;;;;;19.26;98.01;97923.72;15282890;19;20010;-50
2023/03/18 16:29:19;;;;;;;1.52;0.73;;;;;;;19.16;100.00;97923.44;15287630;19;20661;-47
2023/03/18 16:34:46;;;;;;;1.85;0.90;;;;;;;18.93;95.57;97927.66;15282250;19;20034;-47
2023/03/18 16:40:13;;;;;;;1.77;0.80;;;;;;;18.72;100.00;97937.97;15285684;19;20010;-47
2023/03/18 16:45:38;;;;;;;4.68;1.60;;;;;;;18.69;100.00;97935.69;15280610;19;20018;-47
2023/03/18 16:51:06;;;;;;;1.52;0.90;;;;;;;18.20;100.00;97937.41;15287809;19;20015;-48
2023/03/18 16:56:30;;;;;;;2.05;1.00;;;;;;;17.95;100.00;97930.00;15282307;19;20371;-49
2023/03/18 17:01:56;;;;;;;4.80;1.90;;;;;;;17.73;100.00;97935.84;15292545;19;20106;-52
2023/03/18 17:07:32;;;;;;;4.13;2.58;;;;;;;17.48;100.00;97939.31;15276897;19;20011;-51
2023/03/18 17:13:01;;;;;;;2.13;1.00;;;;;;;17.21;100.00;97927.75;14773310;19;10001986;-53
2023/03/18 17:18:29;;;;;;;1.20;0.88;;;;;;;16.96;100.00;97928.47;15281574;19;20089;-47
2023/03/18 17:23:57;;;;;;;2.67;1.10;;;;;;;16.84;100.00;97941.03;15280034;19;20014;-48
2023/03/18 17:29:30;;;;;;;3.33;1.13;;;;;;;16.71;100.00;97944.63;15282211;19;20018;-49
2023/03/18 17:34:56;;;;;;;2.42;1.00;;;;;;;16.32;100.00;97956.19;15278131;19;20029;-48
2023/03/18 17:40:28;;;;;;;1.55;1.10;;;;;;;15.98;100.00;97960.78;15276566;19;20363;-48
2023/03/18 17:45:55;;;;;;;5.50;1.52;;;;;;;15.66;100.00;97974.06;15278378;19;20029;-48
2023/03/18 17:51:25;;;;;;;2.75;1.30;;;;;;;15.51;100.00;97973.38;15285577;19;20019;-47
2023/03/18 17:56:54;;;;;;;3.80;1.60;;;;;;;15.29;100.00;97970.00;15278934;19;20042;-50
2023/03/18 18:02:22;;;;;;;2.38;1.40;;;;;;;15.10;100.00;97972.41;15283429;19;20010;-49
2023/03/18 18:07:54;;;;;;;3.50;1.75;;;;;;;14.97;100.00;97970.47;15274246;19;20014;-46
2023/03/18 18:13:25;;;;;;;4.93;1.98;;;;;;;14.86;100.00;97962.91;15278900;19;20404;-47
2023/03/18 18:18:50;;;;;;;1.90;1.70;;;;;;;14.72;100.00;97962.81;15277275;19;20014;-46
2023/03/18 18:24:21;;;;;;;4.78;1.73;;;;;;;14.32;100.00;97959.78;15273943;19;20558;-48
2023/03/18 18:29:53;;;;;;;3.70;2.25;;;;;;;14.17;100.00;97958.00;15275807;19;20025;-48
2023/03/18 18:35:20;;;;;;;4.07;2.95;;;;;;;14.05;100.00;97956.91;15270562;19;20014;-47
2023/03/18 18:40:45;;;;;;;4.18;2.22;;;;;;;14.22;100.00;97956.59;15266544;19;20018;-51
2023/03/18 18:46:16;;;;;;;5.82;2.50;;;;;;;14.13;100.00;97953.19;15270651;19;20010;-47
2023/03/18 18:51:41;;;;;;;3.63;2.50;;;;;;;13.93;100.00;97955.75;15280635;19;20015;-47
2023/03/18 18:57:06;;;;;;;4.20;2.67;;;;;;;13.76;100.00;97956.00;15275252;19;20018;-48
2023/03/18 19:02:38;;;;;;;4.07;2.90;;;;;;;13.58;100.00;97967.25;15273743;19;20018;-50
2023/03/18 19:08:09;;;;;;;5.15;3.33;;;;;;;13.41;100.00;97966.66;15272736;19;20014;-47
2023/03/18 19:13:36;;;;;;;4.27;2.80;;;;;;;13.16;100.00;97964.25;15267933;19;20553;-50
2023/03/18 19:19:04;;;;;;;3.97;2.85;;;;;;;12.99;100.00;97969.03;15273640;19;20724;-50
2023/03/18 19:24:31;;;;;;;4.40;2.30;;;;;;;12.95;100.00;97968.59;15273929;19;20643;-46
2023/03/18 19:29:57;;;;;;;4.32;2.15;;;;;;;12.89;100.00;97980.13;15274625;19;20019;-47
2023/03/18 19:35:24;;;;;;;3.60;2.20;;;;;;;12.93;100.00;97980.63;15269781;19;20021;-46
2023/03/18 19:40:51;;;;;;;4.72;2.15;;;;;;;12.89;100.00;97982.84;15271836;19;20010;-49
2023/03/18 19:46:19;;;;;;;3.28;2.10;;;;;;;12.86;100.00;97985.06;15266541;19;20470;-50
2023/03/18 19:51:48;;;;;;;4.07;2.08;;;;;;;12.78;100.00;97984.16;15275896;19;20027;-48
2023/03/18 19:57:17;;;;;;;5.53;2.22;;;;;;;12.70;100.00;97986.09;15273014;19;20003;-47
2023/03/18 20:02:43;;;;;;;3.15;1.90;;;;;;;12.61;100.00;97980.78;15275130;19;20040;-48
2023/03/18 20:08:18;;;;;;;4.30;1.83;;;;;;;12.49;100.00;97991.22;15272133;19;20423;-47
2023/03/18 20:13:44;;;;;;;3.33;2.03;;;;;;;12.40;100.00;97995.00;15272669;19;20018;-47
2023/03/18 20:19:09;;;;;;;3.38;1.80;;;;;;;12.29;100.00;98000.88;15265835;19;20824;-49
2023/03/18 20:24:36;;;;;;;3.15;1.90;;;;;;;12.21;100.00;98004.47;15272401;19;20022;-50
2023/03/18 20:30:02;;;;;;;3.28;1.67;;;;;;;12.17;100.00;98003.19;15267782;19;20018;-47
2023/03/18 20:35:30;;;;;;;4.68;1.30;;;;;;;12.17;100.00;98001.31;15248777;19;20463;-50
2023/03/18 20:40:57;;;;;;;2.65;1.67;;;;;;;12.17;100.00;98008.56;15268008;19;20362;-50
2023/03/18 20:46:22;;;;;;;3.10;1.63;;;;;;;12.11;100.00;98010.09;15271674;19;20015;-53
2023/03/18 20:51:47;;;;;;;2.85;1.90;;;;;;;12.12;100.00;98022.59;15269234;19;20011;-46
2023/03/18 20:57:16;;;;;;;2.53;1.50;;;;;;;12.08;100.00;98023.13;15268494;19;20370;-47
2023/03/18 21:02:43;;;;;;;3.08;1.88;;;;;;;12.04;100.00;98029.94;15266578;19;20020;-48
2023/03/18 21:08:16;;;;;;;3.40;1.80;;;;;;;11.97;100.00;98041.41;15268983;19;20010;-46
2023/03/18 21:13:43;;;;;;;;;;;;;;;11.93;100.00;98050.06;15286117;19;20018;-45
2023/03/18 21:19:07;;;;;;;4.45;1.73;;;;;;;11.86;100.00;98044.53;15281351;19;19915;-46
2023/03/18 21:24:31;;;;;;;6.18;1.90;;;;;;;11.83;100.00;98040.34;15275215;19;20021;-46
2023/03/18 21:30:00;;;;;;;2.67;1.50;;;;;;;11.81;100.00;98033.44;15278549;19;20025;-46
2023/03/18 21:35:28;;;;;;;2.78;1.65;;;;;;;11.76;100.00;98046.63;15280312;19;20014;-48
2023/03/18 21:40:53;;;;;;;3.63;1.55;;;;;;;11.69;100.00;98050.03;15275685;19;20021;-46
2023/03/18 21:46:23;;;;;;;3.72;1.77;;;;;;;11.64;100.00;98052.44;15275980;19;20681;-49
2023/03/18 21:51:47;;;;;;;3.83;1.52;;;;;;;11.58;100.00;98045.06;15280821;19;20014;-48
2023/03/18 21:57:16;;;;;;;2.53;1.70;;;;;;;11.53;100.00;98042.03;15275450;19;20014;-47
2023/03/18 22:02:45;;;;;;;1.85;1.65;;;;;;;11.47;100.00;98034.63;15276327;19;20008;-77
2023/03/18 22:08:10;;;;;;;3.08;1.70;;;;;;;11.39;100.00;98039.06;15269946;19;20018;-77
2023/03/18 22:13:35;;;;;;;2.78;1.60;;;;;;;11.34;100.00;98046.00;15265172;19;20014;-77
2023/03/18 22:19:06;;;;;;;2.95;1.60;;;;;;;11.26;100.00;98044.16;15268336;19;20383;-77
2023/03/18 22:24:35;;;;;;;3.20;1.92;;;;;;;11.19;100.00;98037.81;15274432;19;20047;-78
2023/03/18 22:30:01;;;;;;;4.13;1.65;;;;;;;11.10;100.00;98051.31;15279568;19;20078;-78
2023/03/18 22:35:31;;;;;;;5.10;2.00;;;;;;;11.04;100.00;98038.53;15285227;19;20014;-79
2023/03/18 22:40:58;;;;;;;2.70;1.83;;;;;;;10.94;100.00;98036.03;15280078;19;20025;-76
2023/03/18 22:46:24;;;;;;;3.75;1.70;;;;;;;10.84;100.00;98030.00;15279678;19;20013;-78
2023/03/18 22:51:51;;;;;;;2.95;2.08;;;;;;;10.73;100.00;98041.13;15281073;19;20014;-78
2023/03/18 22:57:25;;;;;;;3.28;1.70;;;;;;;10.67;100.00;98039.97;15275993;19;20010;-77
2023/03/18 23:02:52;;;;;;;3.88;1.92;;;;;;;10.55;100.00;98041.34;15279027;19;20029;-77
2023/03/18 23:08:19;;;;;;;3.00;1.90;;;;;;;10.45;100.00;98047.75;15280689;19;20050;-77
2023/03/18 23:13:46;;;;;;;3.53;2.10;;;;;;;10.42;100.00;98040.00;15278352;19;20042;-77
2023/03/18 23:19:04;;;;;;;2.70;1.90;;;;;;;10.38;100.00;98037.81;15275948;19;20014;-77
2023/03/18 23:24:31;;;;;;;3.28;2.10;;;;;;;10.41;100.00;98034.81;15275303;19;20017;-77
2023/03/18 23:29:57;;;;;;;3.35;2.00;;;;;;;10.58;100.00;98038.31;15269699;19;20011;-77
2023/03/18 23:35:21;;;;;;;4.15;2.20;;;;;;;10.61;100.00;98036.09;15279756;19;20428;-79
2023/03/18 23:40:48;;;;;;;3.38;2.17;;;;;;;10.55;100.00;98035.94;15277586;19;20014;-78
2023/03/18 23:46:14;;;;;;;4.97;2.30;;;;;;;10.49;100.00;98029.41;15278821;19;20082;-78
2023/03/18 23:51:39;;;;;;;5.63;2.22;;;;;;;10.38;100.00;98030.59;15276326;19;20018;-77
2023/03/18 23:57:07;;;;;;;3.05;2.15;;;;;;;10.33;100.00;98031.09;15278544;19;20015;-77
